Terminal Aerodrome Forecast
Issued by NWS Caribou, ME

Home | Current Version | Previous Version | Text Only | Print | Product List | Glossary On
Versions: 1 2 3 4 5 6 7 8 9 10 11 12 13 14 15 16 17 18
818
FTUS41 KCAR 010521
TAFBGR
TAF
KBGR 010521Z 0106/0206 VRB02KT P6SM SCT120 BKN200
     FM011400 VRB03KT P6SM SCT100 OVC180
     FM011800 VRB03KT P6SM OVC100
     FM012200 VRB03KT P6SM VCSH OVC060
     FM020300 VRB03KT 6SM -RA OVC030=

USA.gov is the U.S. government's official web portal to all federal, state and local government web resources and services.